createdAt,value
2018-05-11T00:00:53.542Z,0
2018-05-11T00:02:03.730Z,0
2018-05-11T00:03:13.886Z,0
2018-05-11T00:04:23.545Z,0
2018-05-11T00:05:33.773Z,0
2018-05-11T00:06:44.173Z,0
2018-05-11T00:07:54.059Z,0
2018-05-11T00:09:04.231Z,0
2018-05-11T00:10:14.363Z,0
2018-05-11T00:11:24.505Z,0
2018-05-11T00:12:34.654Z,0
2018-05-11T00:13:44.889Z,0
2018-05-11T00:14:55.138Z,0
2018-05-11T00:16:05.299Z,0
2018-05-11T00:17:15.555Z,0
2018-05-11T00:18:25.857Z,0
2018-05-11T00:19:36.024Z,0
2018-05-11T00:20:46.224Z,0
2018-05-11T00:21:56.175Z,0
2018-05-11T00:23:06.064Z,0
2018-05-11T00:24:16.300Z,0
2018-05-11T00:25:26.700Z,0
2018-05-11T00:26:36.857Z,0
2018-05-11T00:27:47.055Z,0
2018-05-11T00:28:57.182Z,0
2018-05-11T00:30:07.092Z,0
2018-05-11T00:31:17.307Z,0
2018-05-11T00:32:27.525Z,0
2018-05-11T00:33:37.540Z,0
2018-05-11T00:34:47.430Z,0
2018-05-11T00:35:57.554Z,0
2018-05-11T00:37:07.685Z,0
2018-05-11T00:38:17.817Z,0
2018-05-11T00:39:28.029Z,0
2018-05-11T00:40:38.189Z,0
2018-05-11T00:41:47.999Z,0
2018-05-11T00:42:57.888Z,0
2018-05-11T00:44:08.062Z,0
2018-05-11T00:45:18.201Z,0
2018-05-11T00:46:28.348Z,0
2018-05-11T00:47:38.491Z,0
2018-05-11T00:48:48.716Z,0
2018-05-11T00:49:58.866Z,0
2018-05-11T00:51:08.933Z,0
2018-05-11T00:52:19.281Z,0
2018-05-11T00:53:29.221Z,0
2018-05-11T00:54:39.367Z,0
2018-05-11T00:55:49.488Z,0
2018-05-11T00:56:59.670Z,0
2018-05-11T00:58:09.839Z,0
2018-05-11T00:59:19.970Z,0
2018-05-11T01:00:29.856Z,0
2018-05-11T01:01:40.069Z,0
2018-05-11T01:02:50.338Z,0
2018-05-11T01:04:01.447Z,0
2018-05-11T01:05:11.843Z,0
2018-05-11T01:06:22.019Z,0
2018-05-11T01:07:32.245Z,0
2018-05-11T01:08:42.448Z,0
2018-05-11T01:09:52.616Z,0
2018-05-11T01:11:02.247Z,0
2018-05-11T01:12:12.480Z,0
2018-05-11T01:13:22.744Z,0
2018-05-11T01:14:32.886Z,0
2018-05-11T01:15:43.004Z,0
2018-05-11T01:16:53.087Z,0
2018-05-11T01:18:03.291Z,0
2018-05-11T01:19:13.573Z,0
2018-05-11T01:20:23.712Z,0
2018-05-11T01:21:33.613Z,0
2018-05-11T01:22:43.741Z,0
2018-05-11T01:23:53.862Z,0
2018-05-11T01:25:04.034Z,0
2018-05-11T01:26:14.045Z,0
2018-05-11T01:27:23.913Z,0
2018-05-11T01:28:33.239Z,0
2018-05-11T01:29:43.541Z,0
2018-05-11T01:30:53.338Z,0
2018-05-11T01:32:03.491Z,0
2018-05-11T01:33:13.631Z,0
2018-05-11T01:34:23.746Z,0
2018-05-11T01:35:33.887Z,0
2018-05-11T01:36:44.020Z,0
2018-05-11T01:37:54.130Z,0
2018-05-11T01:39:04.396Z,0
2018-05-11T01:40:14.583Z,0
2018-05-11T01:41:24.751Z,0
2018-05-11T01:42:34.951Z,0
2018-05-11T01:43:45.136Z,0
2018-05-11T01:44:55.294Z,0
2018-05-11T01:46:05.235Z,0
2018-05-11T01:47:15.398Z,0
2018-05-11T01:48:25.549Z,0
2018-05-11T01:49:35.689Z,0
2018-05-11T01:50:45.455Z,0
2018-05-11T01:51:55.619Z,0
2018-05-11T01:53:05.778Z,0
2018-05-11T01:54:15.906Z,0
2018-05-11T01:55:26.094Z,0
2018-05-11T01:56:36.226Z,0
2018-05-11T01:57:46.397Z,0
2018-05-11T01:58:56.561Z,0
2018-05-11T02:00:06.755Z,0
2018-05-11T02:01:17.013Z,0
2018-05-11T02:02:27.250Z,0
2018-05-11T02:03:37.474Z,0
2018-05-11T02:04:47.649Z,0
2018-05-11T02:05:57.785Z,0
2018-05-11T02:07:07.922Z,0
2018-05-11T02:08:18.111Z,0
2018-05-11T02:09:28.233Z,0
2018-05-11T02:10:38.372Z,0
2018-05-11T02:11:48.536Z,0
2018-05-11T02:12:58.726Z,0
2018-05-11T02:14:08.617Z,0
2018-05-11T02:15:18.820Z,0
2018-05-11T02:16:29.039Z,0
2018-05-11T02:17:38.800Z,0
2018-05-11T02:18:49.127Z,0
2018-05-11T02:19:59.243Z,0
2018-05-11T02:21:09.394Z,0
2018-05-11T02:22:19.593Z,0
2018-05-11T02:23:29.731Z,0
2018-05-11T02:24:40.030Z,0
2018-05-11T02:25:50.406Z,0
2018-05-11T02:27:00.187Z,0
2018-05-11T02:28:10.421Z,0
2018-05-11T02:29:20.596Z,0
2018-05-11T02:30:30.743Z,0
2018-05-11T02:31:40.646Z,0
2018-05-11T02:32:50.416Z,0
2018-05-11T02:34:00.371Z,0
2018-05-11T02:35:10.557Z,0
2018-05-11T02:36:20.844Z,0
2018-05-11T02:37:31.065Z,0
2018-05-11T02:38:41.208Z,0
2018-05-11T02:39:51.460Z,0
2018-05-11T02:41:01.405Z,0
2018-05-11T02:42:11.587Z,0
2018-05-11T02:43:21.757Z,0
2018-05-11T02:44:32.006Z,0
2018-05-11T02:45:42.207Z,0
2018-05-11T02:46:52.373Z,0
2018-05-11T02:48:02.637Z,0
2018-05-11T02:49:12.875Z,0
2018-05-11T02:50:23.129Z,0
2018-05-11T02:51:32.893Z,0
2018-05-11T02:52:43.037Z,0
2018-05-11T02:53:53.234Z,4
2018-05-11T02:55:03.426Z,4
2018-05-11T02:56:13.677Z,0
2018-05-11T02:57:23.821Z,4
2018-05-11T02:58:33.971Z,4
2018-05-11T02:59:44.104Z,4
2018-05-11T03:00:54.264Z,8
2018-05-11T03:02:04.403Z,8
2018-05-11T03:03:14.543Z,8
2018-05-11T03:04:24.680Z,8
2018-05-11T03:05:34.891Z,8
2018-05-11T03:06:45.164Z,12
2018-05-11T03:07:55.365Z,12
2018-05-11T03:09:05.566Z,16
2018-05-11T03:10:15.726Z,20
2018-05-11T03:11:25.911Z,20
2018-05-11T03:12:35.741Z,20
2018-05-11T03:13:45.653Z,20
2018-05-11T03:14:55.798Z,24
2018-05-11T03:16:06.007Z,24
2018-05-11T03:17:15.676Z,28
2018-05-11T03:18:26.159Z,32
2018-05-11T03:19:36.521Z,32
2018-05-11T03:20:46.693Z,40
2018-05-11T03:21:56.821Z,48
2018-05-11T03:23:06.824Z,52
2018-05-11T03:24:16.701Z,60
2018-05-11T03:25:26.869Z,64
2018-05-11T03:26:36.999Z,68
2018-05-11T03:27:47.202Z,72
2018-05-11T03:28:57.431Z,80
2018-05-11T03:30:07.602Z,92
2018-05-11T03:31:17.880Z,100
2018-05-11T03:32:27.246Z,116
2018-05-11T03:33:37.378Z,124
2018-05-11T03:34:47.554Z,136
2018-05-11T03:35:57.724Z,148
2018-05-11T03:37:07.997Z,164
2018-05-11T03:38:18.216Z,180
2018-05-11T03:39:28.457Z,200
2018-05-11T03:40:38.259Z,212
2018-05-11T03:41:48.399Z,224
2018-05-11T03:42:58.276Z,232
2018-05-11T03:44:08.416Z,240
2018-05-11T03:45:18.325Z,256
2018-05-11T03:46:28.459Z,272
2018-05-11T03:47:38.585Z,284
2018-05-11T03:48:48.838Z,304
2018-05-11T03:49:59.013Z,316
2018-05-11T03:51:09.150Z,328
2018-05-11T03:52:19.357Z,336
2018-05-11T03:53:29.641Z,352
2018-05-11T03:54:39.798Z,368
2018-05-11T03:55:49.701Z,392
2018-05-11T03:56:59.504Z,416
2018-05-11T03:58:09.672Z,440
2018-05-11T03:59:19.797Z,460
2018-05-11T04:00:29.974Z,488
2018-05-11T04:01:40.110Z,508
2018-05-11T04:02:50.252Z,528
2018-05-11T04:04:00.392Z,540
2018-05-11T04:05:10.592Z,556
2018-05-11T04:06:20.804Z,568
2018-05-11T04:07:30.945Z,576
2018-05-11T04:08:40.981Z,584
2018-05-11T04:09:51.295Z,600
2018-05-11T04:11:01.572Z,616
2018-05-11T04:12:11.751Z,636
2018-05-11T04:13:22.161Z,668
2018-05-11T04:14:32.297Z,692
2018-05-11T04:15:42.223Z,704
2018-05-11T04:16:52.364Z,704
2018-05-11T04:18:02.140Z,704
2018-05-11T04:19:12.281Z,704
2018-05-11T04:20:22.397Z,712
2018-05-11T04:21:32.558Z,728
2018-05-11T04:22:42.699Z,752
2018-05-11T04:23:53.022Z,788
2018-05-11T04:25:03.222Z,836
2018-05-11T04:26:13.425Z,896
2018-05-11T04:27:23.580Z,952
2018-05-11T04:28:33.439Z,1016
2018-05-11T04:29:43.627Z,1084
2018-05-11T04:30:53.768Z,1140
2018-05-11T04:32:03.926Z,1192
2018-05-11T04:33:14.125Z,1252
2018-05-11T04:34:24.237Z,1328
2018-05-11T04:35:34.379Z,1408
2018-05-11T04:36:44.515Z,1496
2018-05-11T04:37:54.684Z,1568
2018-05-11T04:39:04.858Z,1640
2018-05-11T04:40:15.123Z,1712
2018-05-11T04:41:25.038Z,1732
2018-05-11T04:42:35.173Z,1760
2018-05-11T04:43:45.035Z,1804
2018-05-11T04:44:55.158Z,1872
2018-05-11T04:46:05.302Z,1936
2018-05-11T04:47:15.523Z,2000
2018-05-11T04:48:25.419Z,2044
2018-05-11T04:49:35.564Z,2076
2018-05-11T04:50:45.695Z,2124
2018-05-11T04:51:55.574Z,2192
2018-05-11T04:53:05.726Z,2240
2018-05-11T04:54:15.874Z,2260
2018-05-11T04:55:26.119Z,2256
2018-05-11T04:56:36.261Z,2280
2018-05-11T04:57:46.475Z,2324
2018-05-11T04:58:56.740Z,2372
2018-05-11T05:00:06.893Z,2396
2018-05-11T05:01:17.172Z,2420
2018-05-11T05:02:27.359Z,2440
2018-05-11T05:03:37.589Z,2472
2018-05-11T05:04:47.741Z,2500
2018-05-11T05:05:57.916Z,2540
2018-05-11T05:07:08.065Z,2600
2018-05-11T05:08:18.257Z,2672
2018-05-11T05:09:28.381Z,2764
2018-05-11T05:10:38.547Z,2860
2018-05-11T05:11:48.736Z,2944
2018-05-11T05:12:58.977Z,3008
2018-05-11T05:14:09.123Z,3056
2018-05-11T05:15:18.992Z,3120
2018-05-11T05:16:29.857Z,3196
2018-05-11T05:17:39.991Z,3264
2018-05-11T05:18:49.868Z,3312
2018-05-11T05:20:00.040Z,3356
2018-05-11T05:21:10.169Z,3396
2018-05-11T05:22:20.297Z,3468
2018-05-11T05:23:30.558Z,3552
2018-05-11T05:24:40.698Z,3632
2018-05-11T05:25:50.877Z,3704
2018-05-11T05:27:01.096Z,3796
2018-05-11T05:28:11.297Z,3916
2018-05-11T05:29:21.505Z,4028
2018-05-11T05:30:31.696Z,4088
2018-05-11T05:31:41.970Z,4152
2018-05-11T05:32:51.845Z,4232
2018-05-11T05:34:01.774Z,4308
2018-05-11T05:35:11.907Z,4376
2018-05-11T05:36:22.043Z,4420
2018-05-11T05:37:32.185Z,4504
2018-05-11T05:38:42.318Z,4588
2018-05-11T05:39:52.628Z,4664
2018-05-11T05:41:02.831Z,4712
2018-05-11T05:42:12.987Z,4776
2018-05-11T05:43:23.218Z,4804
2018-05-11T05:44:33.404Z,4832
2018-05-11T05:45:43.598Z,4936
2018-05-11T05:46:53.564Z,5020
2018-05-11T05:48:03.702Z,5064
2018-05-11T05:49:13.834Z,5172
2018-05-11T05:50:24.041Z,5268
2018-05-11T05:51:34.244Z,5348
2018-05-11T05:52:44.011Z,5396
2018-05-11T05:53:54.238Z,5444
2018-05-11T05:55:04.501Z,5480
2018-05-11T05:56:14.744Z,5564
2018-05-11T05:57:24.913Z,5640
2018-05-11T05:58:35.416Z,5696
2018-05-11T05:59:45.376Z,5728
2018-05-11T06:00:55.541Z,5676
2018-05-11T06:02:05.322Z,5584
2018-05-11T06:03:15.514Z,5512
2018-05-11T06:04:25.741Z,5444
2018-05-11T06:05:35.891Z,5396
2018-05-11T06:06:46.132Z,5440
2018-05-11T06:07:56.307Z,5556
2018-05-11T06:09:06.446Z,5668
2018-05-11T06:10:16.635Z,5772
2018-05-11T06:11:26.770Z,5824
2018-05-11T06:12:36.647Z,5856
2018-05-11T06:13:46.792Z,5732
2018-05-11T06:14:56.931Z,5584
2018-05-11T06:16:07.111Z,5404
2018-05-11T06:17:17.272Z,5224
2018-05-11T06:18:28.399Z,5084
2018-05-11T06:19:38.551Z,5008
2018-05-11T06:20:48.743Z,4980
2018-05-11T06:21:59.170Z,5060
2018-05-11T06:23:09.395Z,5236
2018-05-11T06:24:19.604Z,5528
2018-05-11T06:25:29.767Z,5992
2018-05-11T06:26:39.906Z,6784
2018-05-11T06:27:50.052Z,7208
2018-05-11T06:29:00.545Z,7904
2018-05-11T06:30:10.709Z,8184
2018-05-11T06:31:20.606Z,8596
2018-05-11T06:32:30.758Z,8564
2018-05-11T06:33:40.894Z,7856
2018-05-11T06:34:51.145Z,6904
2018-05-11T06:36:01.479Z,6116
2018-05-11T06:37:11.635Z,5508
2018-05-11T06:38:21.870Z,5024
2018-05-11T06:39:32.013Z,4744
2018-05-11T06:40:42.428Z,4608
2018-05-11T06:41:52.590Z,4680
2018-05-11T06:43:02.825Z,5044
2018-05-11T06:44:12.993Z,5196
2018-05-11T06:45:22.962Z,5596
2018-05-11T06:46:33.214Z,5556
2018-05-11T06:47:43.225Z,5580
2018-05-11T06:48:53.383Z,5644
2018-05-11T06:50:03.529Z,5660
2018-05-11T06:51:13.393Z,5772
2018-05-11T06:52:23.565Z,5808
2018-05-11T06:53:33.722Z,5836
2018-05-11T06:54:43.936Z,5756
2018-05-11T06:55:53.995Z,5696
2018-05-11T06:57:04.369Z,5656
2018-05-11T06:58:14.555Z,5640
2018-05-11T06:59:24.792Z,5628
2018-05-11T07:00:34.702Z,5628
2018-05-11T07:01:44.729Z,5664
2018-05-11T07:02:54.962Z,5636
2018-05-11T07:04:05.201Z,5660
2018-05-11T07:05:15.394Z,5660
2018-05-11T07:06:25.602Z,5712
2018-05-11T07:07:35.822Z,5776
2018-05-11T07:08:45.807Z,5804
2018-05-11T07:09:55.786Z,5812
2018-05-11T07:11:05.665Z,5876
2018-05-11T07:12:15.813Z,5816
2018-05-11T07:13:25.954Z,5876
2018-05-11T07:14:36.164Z,5928
2018-05-11T07:15:46.352Z,5956
2018-05-11T07:16:56.503Z,6060
2018-05-11T07:18:06.660Z,6516
2018-05-11T07:19:16.800Z,6228
2018-05-11T07:20:27.113Z,6252
2018-05-11T07:21:37.387Z,6288
2018-05-11T07:22:47.565Z,6308
2018-05-11T07:23:57.815Z,6456
2018-05-11T07:25:07.637Z,6632
2018-05-11T07:26:17.529Z,6700
2018-05-11T07:27:27.685Z,6740
2018-05-11T07:28:37.896Z,6712
2018-05-11T07:29:47.805Z,7032
2018-05-11T07:30:57.940Z,6740
2018-05-11T07:32:08.117Z,6696
2018-05-11T07:33:17.706Z,6748
2018-05-11T07:34:27.965Z,7172
2018-05-11T07:35:37.933Z,7120
2018-05-11T07:36:48.115Z,6896
2018-05-11T07:37:58.241Z,6932
2018-05-11T07:39:08.406Z,7208
2018-05-11T07:40:18.707Z,7116
2018-05-11T07:41:28.926Z,6212
2018-05-11T07:42:39.128Z,7372
2018-05-11T07:43:48.737Z,7420
2018-05-11T07:44:59.017Z,7348
2018-05-11T07:46:09.194Z,7360
2018-05-11T07:47:19.141Z,7420
2018-05-11T07:48:29.094Z,7508
2018-05-11T07:49:39.344Z,7628
2018-05-11T07:50:49.757Z,7728
2018-05-11T07:51:59.921Z,7952
2018-05-11T07:53:10.206Z,7956
2018-05-11T07:54:20.190Z,8124
2018-05-11T07:55:30.120Z,8208
2018-05-11T07:56:40.334Z,8152
2018-05-11T07:57:50.495Z,8336
2018-05-11T07:59:00.433Z,8328
2018-05-11T08:00:10.603Z,8352
2018-05-11T08:01:20.748Z,8396
2018-05-11T08:02:30.912Z,8520
2018-05-11T08:03:41.115Z,8640
2018-05-11T08:04:51.306Z,8684
2018-05-11T08:06:01.515Z,8680
2018-05-11T08:07:11.821Z,8592
2018-05-11T08:08:21.667Z,8624
2018-05-11T08:09:31.696Z,8688
2018-05-11T08:10:41.884Z,8820
2018-05-11T08:11:51.795Z,8908
2018-05-11T08:13:01.966Z,8992
2018-05-11T08:14:12.427Z,9716
2018-05-11T08:15:22.926Z,9948
2018-05-11T08:16:32.849Z,10700
2018-05-11T08:17:43.019Z,9804
2018-05-11T08:18:53.187Z,9892
2018-05-11T08:20:03.127Z,9872
2018-05-11T08:21:12.859Z,10024
2018-05-11T08:22:23.190Z,10660
2018-05-11T08:23:33.464Z,11740
2018-05-11T08:24:43.339Z,13332
2018-05-11T08:25:53.495Z,14716
2018-05-11T08:27:03.484Z,15028
2018-05-11T08:28:13.426Z,15276
2018-05-11T08:29:23.250Z,16512
2018-05-11T08:30:33.421Z,42080
2018-05-11T08:31:44.357Z,41888
2018-05-11T08:32:54.303Z,39360
2018-05-11T08:34:04.555Z,18656
2018-05-11T08:35:14.555Z,50784
2018-05-11T08:36:24.785Z,56832
2018-05-11T08:37:34.991Z,60704
2018-05-11T08:38:44.575Z,56000
2018-05-11T08:39:54.811Z,51200
2018-05-11T08:41:04.737Z,58720
2018-05-11T08:42:14.902Z,62208
2018-05-11T08:43:25.243Z,59968
2018-05-11T08:44:35.466Z,59520
2018-05-11T08:45:45.351Z,51712
2018-05-11T08:46:55.483Z,47488
2018-05-11T08:48:05.375Z,60448
2018-05-11T08:49:15.527Z,66400
2018-05-11T08:50:25.688Z,63072
2018-05-11T08:51:35.866Z,81920
2018-05-11T08:52:45.790Z,89728
2018-05-11T08:53:55.941Z,69088
2018-05-11T08:55:06.171Z,68064
2018-05-11T08:56:16.338Z,74720
2018-05-11T08:57:26.611Z,69728
2018-05-11T08:58:36.906Z,72128
2018-05-11T08:59:47.126Z,75936
2018-05-11T09:00:57.302Z,78496
2018-05-11T09:02:07.582Z,72928
2018-05-11T09:03:17.768Z,83456
2018-05-11T09:04:27.977Z,77120
2018-05-11T09:05:38.165Z,61088
2018-05-11T09:06:48.395Z,75584
2018-05-11T09:07:58.589Z,78080
2018-05-11T09:09:08.778Z,72288
2018-05-11T09:10:19.834Z,69248
2018-05-11T09:11:30.027Z,47456
2018-05-11T09:12:40.299Z,30304
2018-05-11T09:13:50.528Z,15324
2018-05-11T09:15:00.786Z,72544
2018-05-11T09:16:10.975Z,75232
2018-05-11T09:17:21.267Z,44128
2018-05-11T09:18:31.542Z,71264
2018-05-11T09:19:41.510Z,59424
2018-05-11T09:20:51.997Z,80320
2018-05-11T09:22:02.391Z,88736
2018-05-11T09:23:12.520Z,56768
2018-05-11T09:24:22.687Z,34240
2018-05-11T09:25:33.000Z,71552
2018-05-11T09:26:43.183Z,83520
2018-05-11T09:27:53.362Z,90720
2018-05-11T09:29:03.477Z,84544
2018-05-11T09:30:13.467Z,75840
2018-05-11T09:31:23.420Z,81792
2018-05-11T09:32:33.699Z,89376
2018-05-11T09:33:43.947Z,84704
2018-05-11T09:34:54.113Z,71552
2018-05-11T09:36:05.736Z,78912
2018-05-11T09:37:15.998Z,80256
2018-05-11T09:38:26.287Z,17600
2018-05-11T09:39:37.125Z,81760
2018-05-11T09:40:47.522Z,77664
2018-05-11T09:41:57.813Z,75328
2018-05-11T09:43:08.079Z,74176
2018-05-11T09:44:17.993Z,76672
2018-05-11T09:45:28.161Z,80256
2018-05-11T09:46:39.460Z,74432
2018-05-11T09:47:49.665Z,64160
2018-05-11T09:49:00.551Z,43008
2018-05-11T09:50:10.842Z,16288
2018-05-11T09:51:21.029Z,11608
2018-05-11T09:52:31.149Z,11024
2018-05-11T09:53:41.321Z,13112
2018-05-11T09:54:51.741Z,89088
2018-05-11T09:56:02.002Z,84224
2018-05-11T09:57:11.830Z,89984
2018-05-11T09:58:22.056Z,86272
2018-05-11T09:59:32.253Z,88928
2018-05-11T10:00:42.468Z,97152
2018-05-11T10:01:52.962Z,91296
2018-05-11T10:03:03.239Z,86208
2018-05-11T10:04:13.466Z,84608
2018-05-11T10:05:23.706Z,78208
2018-05-11T10:06:33.899Z,76544
2018-05-11T10:07:44.087Z,84320
2018-05-11T10:08:54.411Z,99072
2018-05-11T10:10:04.595Z,113280
2018-05-11T10:11:14.804Z,104864
2018-05-11T10:12:25.113Z,33120
2018-05-11T10:13:35.279Z,24896
2018-05-11T10:14:45.467Z,85984
2018-05-11T10:15:55.377Z,90752
2018-05-11T10:17:05.653Z,101984
2018-05-11T10:18:15.906Z,103904
2018-05-11T10:19:26.091Z,93664
2018-05-11T10:20:36.246Z,85568
2018-05-11T10:21:46.419Z,92928
2018-05-11T10:22:56.721Z,108032
2018-05-11T10:24:06.876Z,103776
2018-05-11T10:25:17.461Z,88896
2018-05-11T10:26:27.761Z,89888
2018-05-11T10:27:37.981Z,96640
2018-05-11T10:28:48.503Z,97440
2018-05-11T10:29:59.584Z,85120
2018-05-11T10:31:09.785Z,73344
2018-05-11T10:32:20.003Z,85248
2018-05-11T10:33:30.181Z,111296
2018-05-11T10:34:40.473Z,110752
2018-05-11T10:35:50.710Z,96768
2018-05-11T10:37:00.880Z,95424
2018-05-11T10:38:11.077Z,110208
2018-05-11T10:39:21.296Z,108608
2018-05-11T10:40:31.449Z,103296
2018-05-11T10:41:41.639Z,51808
2018-05-11T10:42:51.917Z,29632
2018-05-11T10:44:02.129Z,75872
2018-05-11T10:45:12.335Z,104928
2018-05-11T10:46:22.519Z,20864
2018-05-11T10:47:32.775Z,36608
2018-05-11T10:48:43.541Z,24448
2018-05-11T10:49:54.067Z,23680
2018-05-11T10:51:04.406Z,76192
2018-05-11T10:52:14.499Z,82976
2018-05-11T10:53:24.184Z,45408
2018-05-11T10:54:34.442Z,70112
2018-05-11T10:55:44.725Z,27168
2018-05-11T10:56:54.943Z,28288
2018-05-11T10:58:05.129Z,42880
2018-05-11T10:59:15.411Z,103392
2018-05-11T11:00:25.658Z,58176
2018-05-11T11:01:35.838Z,63264
2018-05-11T11:02:46.036Z,97216
2018-05-11T11:03:56.349Z,97664
2018-05-11T11:05:06.584Z,106336
2018-05-11T11:06:16.750Z,120288
2018-05-11T11:07:26.984Z,112416
2018-05-11T11:08:36.957Z,95968
2018-05-11T11:09:47.146Z,81696
2018-05-11T11:10:57.308Z,23392
2018-05-11T11:12:07.514Z,24736
2018-05-11T11:13:17.681Z,29888
2018-05-11T11:14:27.963Z,36128
2018-05-11T11:15:38.168Z,26464
2018-05-11T11:16:48.399Z,17152
2018-05-11T11:17:58.653Z,16256
2018-05-11T11:19:08.864Z,15712
2018-05-11T11:20:19.006Z,15552
2018-05-11T11:21:29.172Z,15968
2018-05-11T11:22:39.445Z,16768
2018-05-11T11:23:49.630Z,17440
2018-05-11T11:24:59.820Z,20864
2018-05-11T11:26:10.420Z,36704
2018-05-11T11:27:20.611Z,86496
2018-05-11T11:28:30.923Z,72064
2018-05-11T11:29:41.232Z,13840
2018-05-11T11:30:51.416Z,12364
2018-05-11T11:32:01.660Z,11888
2018-05-11T11:33:11.873Z,12012
2018-05-11T11:34:21.893Z,12536
2018-05-11T11:35:32.259Z,12904
2018-05-11T11:36:42.474Z,13512
2018-05-11T11:37:52.842Z,15200
2018-05-11T11:39:03.038Z,16864
2018-05-11T11:40:13.245Z,17824
2018-05-11T11:41:23.449Z,18048
2018-05-11T11:42:33.626Z,18016
2018-05-11T11:43:43.886Z,18720
2018-05-11T11:44:54.081Z,19392
2018-05-11T11:46:04.328Z,20800
2018-05-11T11:47:14.509Z,23040
2018-05-11T11:48:24.685Z,25984
2018-05-11T11:49:34.958Z,35264
2018-05-11T11:50:45.131Z,100832
2018-05-11T11:51:55.309Z,28672
2018-05-11T11:53:06.231Z,32384
2018-05-11T11:54:16.379Z,33728
2018-05-11T11:55:26.015Z,48736
2018-05-11T11:56:36.338Z,83104
2018-05-11T11:57:46.521Z,86976
2018-05-11T11:58:56.894Z,106176
2018-05-11T12:00:07.108Z,116096
2018-05-11T12:01:18.243Z,24768
2018-05-11T12:02:28.134Z,25376
2018-05-11T12:03:38.109Z,42144
2018-05-11T12:04:48.471Z,32000
2018-05-11T12:05:58.634Z,60448
2018-05-11T12:07:08.554Z,91552
2018-05-11T12:08:18.711Z,94976
2018-05-11T12:09:28.714Z,90112
2018-05-11T12:10:38.958Z,46112
2018-05-11T12:11:48.887Z,33696
2018-05-11T12:12:59.077Z,58624
2018-05-11T12:14:09.274Z,90336
2018-05-11T12:15:19.478Z,98240
2018-05-11T12:16:29.660Z,100704
2018-05-11T12:17:39.873Z,30976
2018-05-11T12:18:49.697Z,28032
2018-05-11T12:19:59.908Z,33408
2018-05-11T12:21:10.089Z,102592
2018-05-11T12:22:19.891Z,104736
2018-05-11T12:23:29.757Z,67520
2018-05-11T12:24:39.931Z,42944
2018-05-11T12:25:50.038Z,19968
2018-05-11T12:27:00.350Z,16928
2018-05-11T12:28:10.503Z,15712
2018-05-11T12:29:20.686Z,14624
2018-05-11T12:30:30.848Z,13552
2018-05-11T12:31:41.006Z,12812
2018-05-11T12:32:50.933Z,12240
2018-05-11T12:34:01.105Z,11796
2018-05-11T12:35:11.318Z,11328
2018-05-11T12:36:21.540Z,10940
2018-05-11T12:37:31.681Z,10676
2018-05-11T12:38:41.831Z,10564
2018-05-11T12:39:52.123Z,10484
2018-05-11T12:41:02.476Z,10432
2018-05-11T12:42:12.500Z,10324
2018-05-11T12:43:22.694Z,10172
2018-05-11T12:44:33.012Z,10004
2018-05-11T12:45:43.182Z,9848
2018-05-11T12:46:53.352Z,9708
2018-05-11T12:48:03.526Z,9568
2018-05-11T12:49:13.666Z,9484
2018-05-11T12:50:25.107Z,9580
2018-05-11T12:51:35.059Z,10092
2018-05-11T12:52:45.238Z,10788
2018-05-11T12:53:55.576Z,11352
2018-05-11T12:55:05.766Z,11308
2018-05-11T12:56:15.945Z,11148
2018-05-11T12:57:26.125Z,11304
2018-05-11T12:58:36.271Z,11644
2018-05-11T12:59:46.445Z,11620
2018-05-11T13:00:56.616Z,11152
2018-05-11T13:02:06.511Z,11048
2018-05-11T13:03:16.676Z,11068
2018-05-11T13:04:26.826Z,10996
2018-05-11T13:05:36.757Z,10936
2018-05-11T13:06:47.024Z,10976
2018-05-11T13:07:57.196Z,11084
2018-05-11T13:09:07.363Z,11324
2018-05-11T13:10:17.737Z,11520
2018-05-11T13:11:27.880Z,11596
2018-05-11T13:12:38.272Z,11544
2018-05-11T13:13:48.492Z,11732
2018-05-11T13:14:58.713Z,12280
2018-05-11T13:16:08.929Z,12864
2018-05-11T13:17:18.838Z,13032
2018-05-11T13:18:29.993Z,12952
2018-05-11T13:19:40.150Z,12552
2018-05-11T13:20:50.629Z,12636
2018-05-11T13:22:01.021Z,12724
2018-05-11T13:23:11.255Z,13732
2018-05-11T13:24:21.451Z,15328
2018-05-11T13:25:31.632Z,16192
2018-05-11T13:26:41.840Z,16768
2018-05-11T13:27:52.217Z,17120
2018-05-11T13:29:02.449Z,17024
2018-05-11T13:30:12.659Z,17376
2018-05-11T13:31:22.876Z,17216
2018-05-11T13:32:33.030Z,17376
2018-05-11T13:33:43.027Z,17408
2018-05-11T13:34:53.167Z,17344
2018-05-11T13:36:03.373Z,16736
2018-05-11T13:37:13.289Z,16128
2018-05-11T13:38:23.438Z,15808
2018-05-11T13:39:33.627Z,16128
2018-05-11T13:40:43.824Z,16992
2018-05-11T13:41:53.993Z,18240
2018-05-11T13:43:04.245Z,19584
2018-05-11T13:44:14.280Z,20864
2018-05-11T13:45:24.559Z,22048
2018-05-11T13:46:34.751Z,23744
2018-05-11T13:47:45.662Z,26464
2018-05-11T13:48:55.807Z,20832
2018-05-11T13:50:05.968Z,19456
2018-05-11T13:51:16.167Z,20992
2018-05-11T13:52:26.368Z,34880
2018-05-11T13:53:36.563Z,19168
2018-05-11T13:54:46.810Z,16128
2018-05-11T13:55:56.969Z,15296
2018-05-11T13:57:07.223Z,15232
2018-05-11T13:58:17.458Z,15264
2018-05-11T13:59:27.659Z,15488
2018-05-11T14:00:37.844Z,15936
2018-05-11T14:01:48.196Z,16352
2018-05-11T14:02:58.387Z,17472
2018-05-11T14:04:08.585Z,22656
2018-05-11T14:05:18.778Z,43680
2018-05-11T14:06:28.978Z,59456
2018-05-11T14:07:39.155Z,54944
2018-05-11T14:08:49.423Z,59296
2018-05-11T14:09:59.408Z,63040
2018-05-11T14:11:09.572Z,46656
2018-05-11T14:12:19.819Z,33344
2018-05-11T14:13:29.480Z,22592
2018-05-11T14:14:39.662Z,23040
2018-05-11T14:15:49.856Z,20960
2018-05-11T14:17:00.060Z,20672
2018-05-11T14:18:10.322Z,20832
2018-05-11T14:19:20.192Z,21280
2018-05-11T14:20:30.378Z,25152
2018-05-11T14:21:40.558Z,31616
2018-05-11T14:22:50.689Z,39616
2018-05-11T14:24:00.921Z,28352
2018-05-11T14:25:11.081Z,24576
2018-05-11T14:26:21.273Z,34272
2018-05-11T14:27:31.512Z,42080
2018-05-11T14:28:41.312Z,55040
2018-05-11T14:29:51.470Z,49824
2018-05-11T14:31:01.286Z,23296
2018-05-11T14:32:11.532Z,16448
2018-05-11T14:33:21.829Z,19520
2018-05-11T14:34:32.849Z,15040
2018-05-11T14:35:43.026Z,14912
2018-05-11T14:36:53.228Z,14624
2018-05-11T14:38:03.442Z,14720
2018-05-11T14:39:13.749Z,13956
2018-05-11T14:40:23.995Z,12844
2018-05-11T14:41:34.189Z,12128
2018-05-11T14:42:44.452Z,12248
2018-05-11T14:43:54.666Z,16384
2018-05-11T14:45:04.921Z,11876
2018-05-11T14:46:15.093Z,11164
2018-05-11T14:47:25.023Z,10588
2018-05-11T14:48:35.229Z,9920
2018-05-11T14:49:45.993Z,9588
2018-05-11T14:50:56.170Z,9564
2018-05-11T14:52:06.341Z,10712
2018-05-11T14:53:16.583Z,27360
2018-05-11T14:54:26.415Z,27168
2018-05-11T14:55:36.625Z,11792
2018-05-11T14:56:46.778Z,9284
2018-05-11T14:57:56.939Z,9112
2018-05-11T14:59:07.156Z,8840
2018-05-11T15:00:17.061Z,8356
2018-05-11T15:01:27.450Z,8048
2018-05-11T15:02:37.727Z,7800
2018-05-11T15:03:47.887Z,7680
2018-05-11T15:04:57.963Z,7684
2018-05-11T15:06:07.876Z,7716
2018-05-11T15:07:18.112Z,7768
2018-05-11T15:08:28.243Z,7848
2018-05-11T15:09:38.403Z,7816
2018-05-11T15:10:48.566Z,7924
2018-05-11T15:11:58.493Z,8004
2018-05-11T15:13:08.745Z,8564
2018-05-11T15:14:18.958Z,9184
2018-05-11T15:15:29.348Z,13312
2018-05-11T15:16:39.606Z,11180
2018-05-11T15:17:49.800Z,8832
2018-05-11T15:18:59.950Z,8100
2018-05-11T15:20:09.861Z,7416
2018-05-11T15:21:20.011Z,7060
2018-05-11T15:22:30.183Z,7020
2018-05-11T15:23:39.831Z,7044
2018-05-11T15:24:49.998Z,6896
2018-05-11T15:26:00.207Z,6828
2018-05-11T15:27:10.507Z,6884
2018-05-11T15:28:20.679Z,7060
2018-05-11T15:29:30.572Z,7496
2018-05-11T15:30:40.731Z,8072
2018-05-11T15:31:50.560Z,9220
2018-05-11T15:33:00.724Z,9528
2018-05-11T15:34:10.919Z,9412
2018-05-11T15:35:21.139Z,9660
2018-05-11T15:36:30.936Z,10448
2018-05-11T15:37:41.089Z,10640
2018-05-11T15:38:51.245Z,10624
2018-05-11T15:40:01.418Z,10688
2018-05-11T15:41:11.599Z,10908
2018-05-11T15:42:21.808Z,11348